sensor_id;sensor_type;location;lat;lon;timestamp;temperature;humidity
10768;DHT22;5436;51.162;4.162;2022-08-19T00:00:25;19.40;99.90
10768;DHT22;5436;51.162;4.162;2022-08-19T00:02:54;19.40;99.90
10768;DHT22;5436;51.162;4.162;2022-08-19T00:05:28;19.40;99.90
10768;DHT22;5436;51.162;4.162;2022-08-19T00:07:58;19.40;99.90
10768;DHT22;5436;51.162;4.162;2022-08-19T00:10:27;19.40;99.90
10768;DHT22;5436;51.162;4.162;2022-08-19T00:12:57;19.30;99.90
10768;DHT22;5436;51.162;4.162;2022-08-19T00:15:28;19.30;99.90
10768;DHT22;5436;51.162;4.162;2022-08-19T00:17:58;19.30;99.90
10768;DHT22;5436;51.162;4.162;2022-08-19T00:20:28;19.20;99.90
10768;DHT22;5436;51.162;4.162;2022-08-19T00:22:57;19.10;99.90
10768;DHT22;5436;51.162;4.162;2022-08-19T00:25:27;19.10;99.90
10768;DHT22;5436;51.162;4.162;2022-08-19T00:27:56;19.10;99.90
10768;DHT22;5436;51.162;4.162;2022-08-19T00:30:29;18.90;99.90
10768;DHT22;5436;51.162;4.162;2022-08-19T00:32:58;18.90;99.90
10768;DHT22;5436;51.162;4.162;2022-08-19T00:35:27;18.80;99.90
10768;DHT22;5436;51.162;4.162;2022-08-19T00:37:56;18.80;99.90
10768;DHT22;5436;51.162;4.162;2022-08-19T00:40:25;18.80;99.90
10768;DHT22;5436;51.162;4.162;2022-08-19T00:42:56;18.70;99.90
10768;DHT22;5436;51.162;4.162;2022-08-19T00:45:30;18.70;99.90
10768;DHT22;5436;51.162;4.162;2022-08-19T00:47:59;18.80;99.90
10768;DHT22;5436;51.162;4.162;2022-08-19T00:50:29;18.80;99.90
10768;DHT22;5436;51.162;4.162;2022-08-19T00:52:59;18.70;99.90
10768;DHT22;5436;51.162;4.162;2022-08-19T00:55:31;18.70;99.90
10768;DHT22;5436;51.162;4.162;2022-08-19T00:58:06;18.70;99.90
10768;DHT22;5436;51.162;4.162;2022-08-19T01:00:39;18.60;99.90
10768;DHT22;5436;51.162;4.162;2022-08-19T01:03:12;18.60;99.90
10768;DHT22;5436;51.162;4.162;2022-08-19T01:05:43;18.70;99.90
10768;DHT22;5436;51.162;4.162;2022-08-19T01:08:15;18.70;99.90
10768;DHT22;5436;51.162;4.162;2022-08-19T01:10:49;18.70;99.90
10768;DHT22;5436;51.162;4.162;2022-08-19T01:13:21;18.80;99.90
10768;DHT22;5436;51.162;4.162;2022-08-19T01:15:57;18.90;99.90
10768;DHT22;5436;51.162;4.162;2022-08-19T01:18:28;19.00;99.90
10768;DHT22;5436;51.162;4.162;2022-08-19T01:21:02;18.90;99.90
10768;DHT22;5436;51.162;4.162;2022-08-19T01:23:34;18.80;99.90
10768;DHT22;5436;51.162;4.162;2022-08-19T01:26:16;18.80;99.90
10768;DHT22;5436;51.162;4.162;2022-08-19T01:28:48;18.70;99.90
10768;DHT22;5436;51.162;4.162;2022-08-19T01:31:22;18.60;99.90
10768;DHT22;5436;51.162;4.162;2022-08-19T01:33:54;18.60;99.90
10768;DHT22;5436;51.162;4.162;2022-08-19T01:36:28;18.70;99.90
10768;DHT22;5436;51.162;4.162;2022-08-19T01:39:04;18.80;99.90
10768;DHT22;5436;51.162;4.162;2022-08-19T01:41:34;18.80;99.90
10768;DHT22;5436;51.162;4.162;2022-08-19T01:44:04;18.80;99.90
10768;DHT22;5436;51.162;4.162;2022-08-19T01:46:33;18.80;99.90
10768;DHT22;5436;51.162;4.162;2022-08-19T01:49:03;18.80;99.90
10768;DHT22;5436;51.162;4.162;2022-08-19T01:51:34;18.70;99.90
10768;DHT22;5436;51.162;4.162;2022-08-19T01:54:05;18.70;99.90
10768;DHT22;5436;51.162;4.162;2022-08-19T01:56:40;18.70;99.90
10768;DHT22;5436;51.162;4.162;2022-08-19T01:59:13;18.60;99.90
10768;DHT22;5436;51.162;4.162;2022-08-19T02:01:43;18.60;99.90
10768;DHT22;5436;51.162;4.162;2022-08-19T02:04:13;18.50;99.90
10768;DHT22;5436;51.162;4.162;2022-08-19T02:06:42;18.50;99.90
10768;DHT22;5436;51.162;4.162;2022-08-19T02:09:13;18.60;99.90
10768;DHT22;5436;51.162;4.162;2022-08-19T02:11:43;18.50;99.90
10768;DHT22;5436;51.162;4.162;2022-08-19T02:14:12;18.40;99.90
10768;DHT22;5436;51.162;4.162;2022-08-19T02:16:41;18.30;99.90
10768;DHT22;5436;51.162;4.162;2022-08-19T02:19:10;18.20;99.90
10768;DHT22;5436;51.162;4.162;2022-08-19T02:21:40;18.20;99.90
10768;DHT22;5436;51.162;4.162;2022-08-19T02:24:12;18.20;99.90
10768;DHT22;5436;51.162;4.162;2022-08-19T02:26:41;18.10;99.90
10768;DHT22;5436;51.162;4.162;2022-08-19T02:29:10;18.10;99.90
10768;DHT22;5436;51.162;4.162;2022-08-19T02:31:39;18.10;99.90
10768;DHT22;5436;51.162;4.162;2022-08-19T02:34:08;18.10;99.90
10768;DHT22;5436;51.162;4.162;2022-08-19T02:36:37;18.10;99.90
10768;DHT22;5436;51.162;4.162;2022-08-19T02:39:07;17.90;99.90
10768;DHT22;5436;51.162;4.162;2022-08-19T02:41:36;17.90;99.90
10768;DHT22;5436;51.162;4.162;2022-08-19T02:44:05;17.90;99.90
10768;DHT22;5436;51.162;4.162;2022-08-19T02:46:35;17.70;99.90
10768;DHT22;5436;51.162;4.162;2022-08-19T02:49:05;17.60;99.90
10768;DHT22;5436;51.162;4.162;2022-08-19T02:51:37;17.70;99.90
10768;DHT22;5436;51.162;4.162;2022-08-19T02:54:07;17.70;99.90
10768;DHT22;5436;51.162;4.162;2022-08-19T02:56:40;17.60;99.90
10768;DHT22;5436;51.162;4.162;2022-08-19T02:59:13;17.60;99.90
10768;DHT22;5436;51.162;4.162;2022-08-19T03:01:42;17.60;99.90
10768;DHT22;5436;51.162;4.162;2022-08-19T03:04:15;17.70;99.90
10768;DHT22;5436;51.162;4.162;2022-08-19T03:06:46;17.70;99.90
10768;DHT22;5436;51.162;4.162;2022-08-19T03:09:16;17.60;99.90
10768;DHT22;5436;51.162;4.162;2022-08-19T03:11:49;17.50;99.90
10768;DHT22;5436;51.162;4.162;2022-08-19T03:14:19;17.50;99.90
10768;DHT22;5436;51.162;4.162;2022-08-19T03:16:51;17.40;99.90
10768;DHT22;5436;51.162;4.162;2022-08-19T03:19:20;17.50;99.90
10768;DHT22;5436;51.162;4.162;2022-08-19T03:21:50;17.60;99.90
10768;DHT22;5436;51.162;4.162;2022-08-19T03:24:20;17.50;99.90
10768;DHT22;5436;51.162;4.162;2022-08-19T03:26:54;17.50;99.90
10768;DHT22;5436;51.162;4.162;2022-08-19T03:29:26;17.50;99.90
10768;DHT22;5436;51.162;4.162;2022-08-19T03:31:58;17.40;99.90
10768;DHT22;5436;51.162;4.162;2022-08-19T03:34:30;17.40;99.90
10768;DHT22;5436;51.162;4.162;2022-08-19T03:37:03;17.30;99.90
10768;DHT22;5436;51.162;4.162;2022-08-19T03:39:33;17.40;99.90
10768;DHT22;5436;51.162;4.162;2022-08-19T03:42:04;17.40;99.90
10768;DHT22;5436;51.162;4.162;2022-08-19T03:44:34;17.20;99.90
10768;DHT22;5436;51.162;4.162;2022-08-19T03:47:04;17.20;99.90
10768;DHT22;5436;51.162;4.162;2022-08-19T03:49:33;17.20;99.90
10768;DHT22;5436;51.162;4.162;2022-08-19T03:52:04;17.20;99.90
10768;DHT22;5436;51.162;4.162;2022-08-19T03:54:36;17.20;99.90
10768;DHT22;5436;51.162;4.162;2022-08-19T03:57:07;17.10;99.90
10768;DHT22;5436;51.162;4.162;2022-08-19T03:59:38;17.20;99.90
10768;DHT22;5436;51.162;4.162;2022-08-19T04:02:10;17.30;99.90
10768;DHT22;5436;51.162;4.162;2022-08-19T04:04:42;17.10;99.90
10768;DHT22;5436;51.162;4.162;2022-08-19T04:07:14;17.10;99.90
10768;DHT22;5436;51.162;4.162;2022-08-19T04:09:47;17.10;99.90
10768;DHT22;5436;51.162;4.162;2022-08-19T04:12:20;17.10;99.90
10768;DHT22;5436;51.162;4.162;2022-08-19T04:14:49;17.10;99.90
10768;DHT22;5436;51.162;4.162;2022-08-19T04:17:18;17.00;99.90
10768;DHT22;5436;51.162;4.162;2022-08-19T04:19:47;16.90;99.90
10768;DHT22;5436;51.162;4.162;2022-08-19T04:22:17;16.90;99.90
10768;DHT22;5436;51.162;4.162;2022-08-19T04:24:47;17.00;99.90
10768;DHT22;5436;51.162;4.162;2022-08-19T04:27:16;17.00;99.90
10768;DHT22;5436;51.162;4.162;2022-08-19T04:29:47;17.00;99.90
10768;DHT22;5436;51.162;4.162;2022-08-19T04:32:17;17.00;99.90
10768;DHT22;5436;51.162;4.162;2022-08-19T04:34:47;16.90;99.90
10768;DHT22;5436;51.162;4.162;2022-08-19T04:37:19;16.90;99.90
10768;DHT22;5436;51.162;4.162;2022-08-19T04:39:49;17.00;99.90
10768;DHT22;5436;51.162;4.162;2022-08-19T04:42:31;17.00;99.90
10768;DHT22;5436;51.162;4.162;2022-08-19T04:45:13;17.00;99.90
10768;DHT22;5436;51.162;4.162;2022-08-19T04:47:44;16.90;99.90
10768;DHT22;5436;51.162;4.162;2022-08-19T04:50:13;16.90;99.90
10768;DHT22;5436;51.162;4.162;2022-08-19T04:52:46;16.80;99.90
10768;DHT22;5436;51.162;4.162;2022-08-19T04:55:15;16.80;99.90
10768;DHT22;5436;51.162;4.162;2022-08-19T04:57:45;16.90;99.90
10768;DHT22;5436;51.162;4.162;2022-08-19T05:00:21;16.90;99.90
10768;DHT22;5436;51.162;4.162;2022-08-19T05:02:51;16.90;99.90
10768;DHT22;5436;51.162;4.162;2022-08-19T05:05:21;16.80;99.90
10768;DHT22;5436;51.162;4.162;2022-08-19T05:07:50;16.80;99.90
10768;DHT22;5436;51.162;4.162;2022-08-19T05:10:18;16.90;99.90
10768;DHT22;5436;51.162;4.162;2022-08-19T05:12:48;16.90;99.90
10768;DHT22;5436;51.162;4.162;2022-08-19T05:15:20;16.90;99.90
10768;DHT22;5436;51.162;4.162;2022-08-19T05:17:49;17.00;99.90
10768;DHT22;5436;51.162;4.162;2022-08-19T05:20:30;17.10;99.90
10768;DHT22;5436;51.162;4.162;2022-08-19T05:23:11;17.10;99.90
10768;DHT22;5436;51.162;4.162;2022-08-19T05:25:42;17.20;99.90
10768;DHT22;5436;51.162;4.162;2022-08-19T05:28:11;17.20;99.90
10768;DHT22;5436;51.162;4.162;2022-08-19T05:30:43;17.20;99.90
10768;DHT22;5436;51.162;4.162;2022-08-19T05:33:12;17.30;99.90
10768;DHT22;5436;51.162;4.162;2022-08-19T05:35:41;17.30;99.90
10768;DHT22;5436;51.162;4.162;2022-08-19T05:38:10;17.30;99.90
10768;DHT22;5436;51.162;4.162;2022-08-19T05:40:39;17.40;99.90
10768;DHT22;5436;51.162;4.162;2022-08-19T05:43:14;17.50;99.90
10768;DHT22;5436;51.162;4.162;2022-08-19T05:45:46;17.60;99.90
10768;DHT22;5436;51.162;4.162;2022-08-19T05:48:16;17.50;99.90
10768;DHT22;5436;51.162;4.162;2022-08-19T05:50:47;17.50;99.90
10768;DHT22;5436;51.162;4.162;2022-08-19T05:53:16;17.70;99.90
10768;DHT22;5436;51.162;4.162;2022-08-19T05:55:46;17.80;99.90
10768;DHT22;5436;51.162;4.162;2022-08-19T05:58:15;17.90;99.90
10768;DHT22;5436;51.162;4.162;2022-08-19T06:00:46;18.10;99.90
10768;DHT22;5436;51.162;4.162;2022-08-19T06:03:16;18.20;99.90
10768;DHT22;5436;51.162;4.162;2022-08-19T06:05:45;18.30;99.90
10768;DHT22;5436;51.162;4.162;2022-08-19T06:08:14;18.50;99.90
10768;DHT22;5436;51.162;4.162;2022-08-19T06:10:44;18.70;99.90
10768;DHT22;5436;51.162;4.162;2022-08-19T06:13:13;18.80;99.90
10768;DHT22;5436;51.162;4.162;2022-08-19T06:15:47;18.90;99.90
10768;DHT22;5436;51.162;4.162;2022-08-19T06:18:16;19.00;99.90
10768;DHT22;5436;51.162;4.162;2022-08-19T06:20:45;19.10;99.90
10768;DHT22;5436;51.162;4.162;2022-08-19T06:23:14;19.10;99.90
10768;DHT22;5436;51.162;4.162;2022-08-19T06:25:44;19.20;99.90
10768;DHT22;5436;51.162;4.162;2022-08-19T06:28:13;19.30;99.90
10768;DHT22;5436;51.162;4.162;2022-08-19T06:30:42;19.30;99.90
10768;DHT22;5436;51.162;4.162;2022-08-19T06:33:16;19.20;99.90
10768;DHT22;5436;51.162;4.162;2022-08-19T06:35:45;19.30;99.90
10768;DHT22;5436;51.162;4.162;2022-08-19T06:38:14;19.20;99.90
10768;DHT22;5436;51.162;4.162;2022-08-19T06:40:43;19.10;99.90
10768;DHT22;5436;51.162;4.162;2022-08-19T06:43:12;19.40;99.90
10768;DHT22;5436;51.162;4.162;2022-08-19T06:45:41;19.60;99.90
10768;DHT22;5436;51.162;4.162;2022-08-19T06:48:19;19.70;99.90
10768;DHT22;5436;51.162;4.162;2022-08-19T06:50:48;19.70;99.90
10768;DHT22;5436;51.162;4.162;2022-08-19T06:53:17;19.90;99.90
10768;DHT22;5436;51.162;4.162;2022-08-19T06:55:47;19.80;99.90
10768;DHT22;5436;51.162;4.162;2022-08-19T06:58:26;19.80;99.90
10768;DHT22;5436;51.162;4.162;2022-08-19T07:00:59;19.70;99.90
10768;DHT22;5436;51.162;4.162;2022-08-19T07:03:34;19.90;99.90
10768;DHT22;5436;51.162;4.162;2022-08-19T07:06:05;19.90;99.90
10768;DHT22;5436;51.162;4.162;2022-08-19T07:08:36;19.90;99.90
10768;DHT22;5436;51.162;4.162;2022-08-19T07:11:11;20.00;99.90
10768;DHT22;5436;51.162;4.162;2022-08-19T07:13:41;20.10;99.90
10768;DHT22;5436;51.162;4.162;2022-08-19T07:16:15;20.10;99.90
10768;DHT22;5436;51.162;4.162;2022-08-19T07:18:48;20.00;99.90
10768;DHT22;5436;51.162;4.162;2022-08-19T07:21:19;20.30;99.90
10768;DHT22;5436;51.162;4.162;2022-08-19T07:23:50;20.50;99.90
10768;DHT22;5436;51.162;4.162;2022-08-19T07:26:24;20.60;99.90
10768;DHT22;5436;51.162;4.162;2022-08-19T07:28:54;20.40;99.90
10768;DHT22;5436;51.162;4.162;2022-08-19T07:31:25;20.60;99.90
10768;DHT22;5436;51.162;4.162;2022-08-19T07:33:56;20.50;99.90
10768;DHT22;5436;51.162;4.162;2022-08-19T07:36:27;20.40;99.90
10768;DHT22;5436;51.162;4.162;2022-08-19T07:39:00;20.50;99.90
10768;DHT22;5436;51.162;4.162;2022-08-19T07:41:29;20.60;99.90
10768;DHT22;5436;51.162;4.162;2022-08-19T07:43:59;20.70;99.90
10768;DHT22;5436;51.162;4.162;2022-08-19T07:46:31;20.80;99.90
10768;DHT22;5436;51.162;4.162;2022-08-19T07:49:03;20.80;99.90
10768;DHT22;5436;51.162;4.162;2022-08-19T07:51:34;20.80;99.90
10768;DHT22;5436;51.162;4.162;2022-08-19T07:54:04;20.70;99.90
10768;DHT22;5436;51.162;4.162;2022-08-19T07:56:32;20.70;99.90
10768;DHT22;5436;51.162;4.162;2022-08-19T07:59:01;20.90;99.90
10768;DHT22;5436;51.162;4.162;2022-08-19T08:01:32;20.80;99.90
10768;DHT22;5436;51.162;4.162;2022-08-19T08:04:04;20.70;99.90
10768;DHT22;5436;51.162;4.162;2022-08-19T08:06:46;20.90;99.90
10768;DHT22;5436;51.162;4.162;2022-08-19T08:09:30;21.00;99.90
10768;DHT22;5436;51.162;4.162;2022-08-19T08:12:02;21.10;99.90
10768;DHT22;5436;51.162;4.162;2022-08-19T08:14:35;21.30;99.90
10768;DHT22;5436;51.162;4.162;2022-08-19T08:17:07;21.20;99.90
10768;DHT22;5436;51.162;4.162;2022-08-19T08:19:40;21.30;99.90
10768;DHT22;5436;51.162;4.162;2022-08-19T08:22:10;21.20;99.90
10768;DHT22;5436;51.162;4.162;2022-08-19T08:25:03;21.20;99.90
10768;DHT22;5436;51.162;4.162;2022-08-19T08:27:35;21.20;99.90
10768;DHT22;5436;51.162;4.162;2022-08-19T08:30:06;21.30;99.90
10768;DHT22;5436;51.162;4.162;2022-08-19T08:32:38;21.20;99.90
10768;DHT22;5436;51.162;4.162;2022-08-19T08:35:13;21.20;99.90
10768;DHT22;5436;51.162;4.162;2022-08-19T08:37:43;21.30;99.90
10768;DHT22;5436;51.162;4.162;2022-08-19T08:40:20;21.50;99.90
10768;DHT22;5436;51.162;4.162;2022-08-19T08:42:55;21.50;99.90
10768;DHT22;5436;51.162;4.162;2022-08-19T08:45:27;21.40;99.90
10768;DHT22;5436;51.162;4.162;2022-08-19T08:48:15;21.30;99.90
10768;DHT22;5436;51.162;4.162;2022-08-19T08:50:49;21.50;99.90
10768;DHT22;5436;51.162;4.162;2022-08-19T08:53:20;21.60;99.90
10768;DHT22;5436;51.162;4.162;2022-08-19T08:55:49;21.80;99.90
10768;DHT22;5436;51.162;4.162;2022-08-19T08:58:24;21.80;99.90
10768;DHT22;5436;51.162;4.162;2022-08-19T09:00:55;21.60;99.90
10768;DHT22;5436;51.162;4.162;2022-08-19T09:03:44;21.70;99.90
10768;DHT22;5436;51.162;4.162;2022-08-19T09:06:23;21.80;99.90
10768;DHT22;5436;51.162;4.162;2022-08-19T09:09:03;21.80;99.90
10768;DHT22;5436;51.162;4.162;2022-08-19T09:11:44;21.70;99.90
10768;DHT22;5436;51.162;4.162;2022-08-19T09:14:30;21.60;99.90
10768;DHT22;5436;51.162;4.162;2022-08-19T09:17:01;21.60;99.90
10768;DHT22;5436;51.162;4.162;2022-08-19T09:19:34;21.70;99.90
10768;DHT22;5436;51.162;4.162;2022-08-19T09:22:06;21.60;99.90
10768;DHT22;5436;51.162;4.162;2022-08-19T09:24:36;21.60;99.90
10768;DHT22;5436;51.162;4.162;2022-08-19T09:27:05;21.50;99.90
10768;DHT22;5436;51.162;4.162;2022-08-19T09:29:34;21.50;99.90
10768;DHT22;5436;51.162;4.162;2022-08-19T09:32:04;21.50;99.90
10768;DHT22;5436;51.162;4.162;2022-08-19T09:34:33;21.60;99.90
10768;DHT22;5436;51.162;4.162;2022-08-19T09:37:02;21.50;99.90
10768;DHT22;5436;51.162;4.162;2022-08-19T09:39:35;21.60;99.90
10768;DHT22;5436;51.162;4.162;2022-08-19T09:42:05;21.70;99.90
10768;DHT22;5436;51.162;4.162;2022-08-19T09:44:37;21.90;99.90
10768;DHT22;5436;51.162;4.162;2022-08-19T09:47:09;22.00;99.90
10768;DHT22;5436;51.162;4.162;2022-08-19T09:49:39;21.90;99.90
10768;DHT22;5436;51.162;4.162;2022-08-19T09:52:08;21.80;99.90
10768;DHT22;5436;51.162;4.162;2022-08-19T09:55:03;21.80;99.90
10768;DHT22;5436;51.162;4.162;2022-08-19T09:57:32;21.70;99.90
10768;DHT22;5436;51.162;4.162;2022-08-19T10:00:03;21.70;99.90
10768;DHT22;5436;51.162;4.162;2022-08-19T10:02:35;21.70;99.90
10768;DHT22;5436;51.162;4.162;2022-08-19T10:05:05;21.70;99.90
10768;DHT22;5436;51.162;4.162;2022-08-19T10:07:58;21.70;99.90
10768;DHT22;5436;51.162;4.162;2022-08-19T10:10:30;21.80;99.90
10768;DHT22;5436;51.162;4.162;2022-08-19T10:13:05;21.90;99.90
10768;DHT22;5436;51.162;4.162;2022-08-19T10:15:35;22.00;99.90
10768;DHT22;5436;51.162;4.162;2022-08-19T10:18:07;22.30;99.90
10768;DHT22;5436;51.162;4.162;2022-08-19T10:20:36;22.20;99.90
10768;DHT22;5436;51.162;4.162;2022-08-19T10:23:07;22.30;99.90
10768;DHT22;5436;51.162;4.162;2022-08-19T10:25:39;22.30;99.90
10768;DHT22;5436;51.162;4.162;2022-08-19T10:28:09;22.50;99.90
10768;DHT22;5436;51.162;4.162;2022-08-19T10:30:41;22.80;99.90
10768;DHT22;5436;51.162;4.162;2022-08-19T10:33:10;22.90;99.90
10768;DHT22;5436;51.162;4.162;2022-08-19T10:35:40;22.90;99.90
10768;DHT22;5436;51.162;4.162;2022-08-19T10:38:13;23.10;99.90
10768;DHT22;5436;51.162;4.162;2022-08-19T10:40:44;22.90;99.90
10768;DHT22;5436;51.162;4.162;2022-08-19T10:43:13;23.00;99.90
10768;DHT22;5436;51.162;4.162;2022-08-19T10:45:43;23.00;99.90
10768;DHT22;5436;51.162;4.162;2022-08-19T10:48:11;22.80;99.90
10768;DHT22;5436;51.162;4.162;2022-08-19T10:50:40;22.90;99.90
10768;DHT22;5436;51.162;4.162;2022-08-19T10:53:22;22.70;99.90
10768;DHT22;5436;51.162;4.162;2022-08-19T10:55:54;22.80;99.90
10768;DHT22;5436;51.162;4.162;2022-08-19T10:58:35;23.20;99.90
10768;DHT22;5436;51.162;4.162;2022-08-19T11:01:05;23.70;99.90
10768;DHT22;5436;51.162;4.162;2022-08-19T11:06:43;23.90;99.90
10768;DHT22;5436;51.162;4.162;2022-08-19T11:09:14;24.40;99.90
10768;DHT22;5436;51.162;4.162;2022-08-19T11:11:46;24.60;99.90
10768;DHT22;5436;51.162;4.162;2022-08-19T11:14:17;24.80;99.90
10768;DHT22;5436;51.162;4.162;2022-08-19T11:16:47;25.00;99.90
10768;DHT22;5436;51.162;4.162;2022-08-19T11:19:20;25.20;99.90
10768;DHT22;5436;51.162;4.162;2022-08-19T11:21:50;25.10;99.90
10768;DHT22;5436;51.162;4.162;2022-08-19T11:24:21;24.70;99.90
10768;DHT22;5436;51.162;4.162;2022-08-19T11:27:00;24.80;99.90
10768;DHT22;5436;51.162;4.162;2022-08-19T11:29:30;25.20;99.90
10768;DHT22;5436;51.162;4.162;2022-08-19T11:32:03;25.10;99.90
10768;DHT22;5436;51.162;4.162;2022-08-19T11:34:33;25.40;99.90
10768;DHT22;5436;51.162;4.162;2022-08-19T11:37:03;24.90;99.90
10768;DHT22;5436;51.162;4.162;2022-08-19T11:39:35;25.30;99.90
10768;DHT22;5436;51.162;4.162;2022-08-19T11:42:07;25.40;99.90
10768;DHT22;5436;51.162;4.162;2022-08-19T11:44:48;25.30;99.90
10768;DHT22;5436;51.162;4.162;2022-08-19T11:47:19;25.50;99.90
